sensor_id;sensor_type;location;lat;lon;timestamp;pressure;altitude;pressure_sealevel;temperature;humidity
21960;BME280;11144;43.030;25.108;2022-08-05T00:00:23;99163.91;;;21.91;100.00
21960;BME280;11144;43.030;25.108;2022-08-05T00:01:56;99170.38;;;21.89;100.00
21960;BME280;11144;43.030;25.108;2022-08-05T00:03:42;99163.53;;;21.85;100.00
21960;BME280;11144;43.030;25.108;2022-08-05T00:05:16;99172.84;;;21.81;100.00
21960;BME280;11144;43.030;25.108;2022-08-05T00:07:11;99168.97;;;21.74;100.00
21960;BME280;11144;43.030;25.108;2022-08-05T00:09:04;99173.00;;;21.68;100.00
21960;BME280;11144;43.030;25.108;2022-08-05T00:10:45;99170.69;;;21.64;100.00
21960;BME280;11144;43.030;25.108;2022-08-05T00:12:20;99165.56;;;21.61;100.00
21960;BME280;11144;43.030;25.108;2022-08-05T00:13:53;99171.69;;;21.52;100.00
21960;BME280;11144;43.030;25.108;2022-08-05T00:15:27;99171.94;;;21.49;100.00
21960;BME280;11144;43.030;25.108;2022-08-05T00:17:20;99160.00;;;21.42;100.00
21960;BME280;11144;43.030;25.108;2022-08-05T00:18:56;99166.59;;;21.38;100.00
21960;BME280;11144;43.030;25.108;2022-08-05T00:20:28;99173.72;;;21.28;100.00
21960;BME280;11144;43.030;25.108;2022-08-05T00:22:02;99175.91;;;21.23;100.00
21960;BME280;11144;43.030;25.108;2022-08-05T00:23:39;99176.19;;;21.20;100.00
21960;BME280;11144;43.030;25.108;2022-08-05T00:25:23;99181.81;;;21.17;100.00
21960;BME280;11144;43.030;25.108;2022-08-05T00:27:16;99168.84;;;21.11;100.00
21960;BME280;11144;43.030;25.108;2022-08-05T00:28:49;99171.78;;;21.08;100.00
21960;BME280;11144;43.030;25.108;2022-08-05T00:30:22;99175.47;;;21.07;100.00
21960;BME280;11144;43.030;25.108;2022-08-05T00:32:03;99176.56;;;21.04;100.00
21960;BME280;11144;43.030;25.108;2022-08-05T00:33:45;99174.25;;;21.00;100.00
21960;BME280;11144;43.030;25.108;2022-08-05T00:35:39;99177.28;;;20.95;100.00
21960;BME280;11144;43.030;25.108;2022-08-05T00:37:33;99177.28;;;20.95;100.00
21960;BME280;11144;43.030;25.108;2022-08-05T00:39:26;99175.81;;;20.91;100.00
21960;BME280;11144;43.030;25.108;2022-08-05T00:41:12;99178.88;;;20.87;100.00
21960;BME280;11144;43.030;25.108;2022-08-05T00:42:45;99168.13;;;20.87;100.00
21960;BME280;11144;43.030;25.108;2022-08-05T00:44:20;99175.19;;;20.88;100.00
21960;BME280;11144;43.030;25.108;2022-08-05T00:46:02;99173.97;;;20.81;100.00
21960;BME280;11144;43.030;25.108;2022-08-05T00:47:35;99173.00;;;20.82;100.00
21960;BME280;11144;43.030;25.108;2022-08-05T00:49:29;99173.75;;;20.84;100.00
21960;BME280;11144;43.030;25.108;2022-08-05T00:51:03;99177.16;;;20.86;100.00
21960;BME280;11144;43.030;25.108;2022-08-05T00:52:57;99175.69;;;20.82;100.00
21960;BME280;11144;43.030;25.108;2022-08-05T00:54:31;99180.69;;;20.75;100.00
21960;BME280;11144;43.030;25.108;2022-08-05T00:56:05;99182.28;;;20.67;100.00
21960;BME280;11144;43.030;25.108;2022-08-05T00:57:39;99175.66;;;20.60;100.00
21960;BME280;11144;43.030;25.108;2022-08-05T00:59:29;99177.41;;;20.50;100.00
21960;BME280;11144;43.030;25.108;2022-08-05T01:01:15;99179.31;;;20.37;100.00
21960;BME280;11144;43.030;25.108;2022-08-05T01:03:09;99177.47;;;20.26;100.00
21960;BME280;11144;43.030;25.108;2022-08-05T01:04:54;99179.03;;;20.18;100.00
21960;BME280;11144;43.030;25.108;2022-08-05T01:06:27;99180.72;;;20.19;100.00
21960;BME280;11144;43.030;25.108;2022-08-05T01:08:03;99177.31;;;20.17;100.00
21960;BME280;11144;43.030;25.108;2022-08-05T01:09:59;99173.09;;;20.02;100.00
21960;BME280;11144;43.030;25.108;2022-08-05T01:11:40;99180.47;;;19.87;100.00
21960;BME280;11144;43.030;25.108;2022-08-05T01:13:23;99179.94;;;19.71;100.00
21960;BME280;11144;43.030;25.108;2022-08-05T01:15:02;99181.69;;;19.59;100.00
21960;BME280;11144;43.030;25.108;2022-08-05T01:16:44;99177.41;;;19.57;100.00
21960;BME280;11144;43.030;25.108;2022-08-05T01:18:24;99169.72;;;19.52;100.00
21960;BME280;11144;43.030;25.108;2022-08-05T01:20:11;99185.13;;;19.61;100.00
21960;BME280;11144;43.030;25.108;2022-08-05T01:21:54;99176.09;;;19.62;100.00
21960;BME280;11144;43.030;25.108;2022-08-05T01:23:47;99173.75;;;19.58;100.00
21960;BME280;11144;43.030;25.108;2022-08-05T01:25:57;99181.47;;;19.62;100.00
21960;BME280;11144;43.030;25.108;2022-08-05T01:28:12;99186.41;;;19.68;100.00
21960;BME280;11144;43.030;25.108;2022-08-05T01:29:49;99185.53;;;19.68;100.00
21960;BME280;11144;43.030;25.108;2022-08-05T01:31:27;99185.75;;;19.65;100.00
21960;BME280;11144;43.030;25.108;2022-08-05T01:33:04;99181.25;;;19.65;100.00
21960;BME280;11144;43.030;25.108;2022-08-05T01:34:44;99181.97;;;19.67;100.00
21960;BME280;11144;43.030;25.108;2022-08-05T01:36:23;99179.56;;;19.64;100.00
21960;BME280;11144;43.030;25.108;2022-08-05T01:38:00;99183.19;;;19.63;100.00
21960;BME280;11144;43.030;25.108;2022-08-05T01:39:36;99186.09;;;19.60;100.00
21960;BME280;11144;43.030;25.108;2022-08-05T01:41:20;99184.38;;;19.59;100.00
21960;BME280;11144;43.030;25.108;2022-08-05T01:42:59;99180.97;;;19.57;100.00
21960;BME280;11144;43.030;25.108;2022-08-05T01:44:35;99181.91;;;19.56;100.00
21960;BME280;11144;43.030;25.108;2022-08-05T01:46:09;99185.97;;;19.62;100.00
21960;BME280;11144;43.030;25.108;2022-08-05T01:47:48;99184.16;;;19.62;100.00
21960;BME280;11144;43.030;25.108;2022-08-05T01:49:26;99181.47;;;19.62;100.00
21960;BME280;11144;43.030;25.108;2022-08-05T01:51:22;99192.22;;;19.62;100.00
21960;BME280;11144;43.030;25.108;2022-08-05T01:53:01;99194.13;;;19.60;100.00
21960;BME280;11144;43.030;25.108;2022-08-05T01:54:42;99189.63;;;19.61;100.00
21960;BME280;11144;43.030;25.108;2022-08-05T01:56:17;99178.50;;;19.54;100.00
21960;BME280;11144;43.030;25.108;2022-08-05T01:58:14;99192.66;;;19.56;100.00
21960;BME280;11144;43.030;25.108;2022-08-05T02:00:02;99186.34;;;19.57;100.00
21960;BME280;11144;43.030;25.108;2022-08-05T02:01:45;99192.66;;;19.56;100.00
21960;BME280;11144;43.030;25.108;2022-08-05T02:03:23;99193.63;;;19.55;100.00
21960;BME280;11144;43.030;25.108;2022-08-05T02:05:05;99195.69;;;19.52;100.00
21960;BME280;11144;43.030;25.108;2022-08-05T02:06:43;99195.06;;;19.48;100.00
21960;BME280;11144;43.030;25.108;2022-08-05T02:08:18;99195.28;;;19.45;100.00
21960;BME280;11144;43.030;25.108;2022-08-05T02:10:03;99186.50;;;19.43;100.00
21960;BME280;11144;43.030;25.108;2022-08-05T02:11:42;99193.78;;;19.41;100.00
21960;BME280;11144;43.030;25.108;2022-08-05T02:13:27;99199.63;;;19.35;100.00
21960;BME280;11144;43.030;25.108;2022-08-05T02:15:23;99196.19;;;19.33;100.00
21960;BME280;11144;43.030;25.108;2022-08-05T02:17:10;99197.28;;;19.31;100.00
21960;BME280;11144;43.030;25.108;2022-08-05T02:19:07;99199.19;;;19.29;100.00
21960;BME280;11144;43.030;25.108;2022-08-05T02:20:48;99194.69;;;19.29;100.00
21960;BME280;11144;43.030;25.108;2022-08-05T02:22:27;99197.72;;;19.25;100.00
21960;BME280;11144;43.030;25.108;2022-08-05T02:24:07;99197.28;;;19.18;100.00
21960;BME280;11144;43.030;25.108;2022-08-05T02:25:44;99202.53;;;19.20;100.00
21960;BME280;11144;43.030;25.108;2022-08-05T02:27:22;99198.97;;;19.19;100.00
21960;BME280;11144;43.030;25.108;2022-08-05T02:29:20;99197.16;;;19.20;100.00
21960;BME280;11144;43.030;25.108;2022-08-05T02:31:18;99197.28;;;19.18;100.00
21960;BME280;11144;43.030;25.108;2022-08-05T02:32:54;99192.88;;;19.17;100.00
21960;BME280;11144;43.030;25.108;2022-08-05T02:34:31;99193.97;;;19.15;100.00
21960;BME280;11144;43.030;25.108;2022-08-05T02:36:10;99191.41;;;19.13;100.00
21960;BME280;11144;43.030;25.108;2022-08-05T02:37:46;99188.16;;;19.08;100.00
21960;BME280;11144;43.030;25.108;2022-08-05T02:39:26;99184.88;;;19.05;100.00
21960;BME280;11144;43.030;25.108;2022-08-05T02:41:04;99182.31;;;19.03;100.00
21960;BME280;11144;43.030;25.108;2022-08-05T02:42:49;99188.09;;;18.97;100.00
21960;BME280;11144;43.030;25.108;2022-08-05T02:44:28;99195.41;;;18.95;100.00
21960;BME280;11144;43.030;25.108;2022-08-05T02:46:01;99185.97;;;18.90;100.00
21960;BME280;11144;43.030;25.108;2022-08-05T02:47:36;99187.06;;;18.87;100.00
21960;BME280;11144;43.030;25.108;2022-08-05T02:49:31;99194.13;;;18.88;100.00
21960;BME280;11144;43.030;25.108;2022-08-05T02:51:08;99193.47;;;18.85;100.00
21960;BME280;11144;43.030;25.108;2022-08-05T02:52:45;99187.91;;;18.75;100.00
21960;BME280;11144;43.030;25.108;2022-08-05T02:54:20;99189.56;;;18.65;100.00
21960;BME280;11144;43.030;25.108;2022-08-05T02:56:09;99188.91;;;18.62;100.00
21960;BME280;11144;43.030;25.108;2022-08-05T02:57:49;99187.50;;;18.56;100.00
21960;BME280;11144;43.030;25.108;2022-08-05T02:59:46;99189.09;;;18.46;100.00
21960;BME280;11144;43.030;25.108;2022-08-05T03:01:24;99187.59;;;18.42;100.00
21960;BME280;11144;43.030;25.108;2022-08-05T03:02:59;99194.91;;;18.40;100.00
21960;BME280;11144;43.030;25.108;2022-08-05T03:04:41;99195.63;;;18.42;100.00
21960;BME280;11144;43.030;25.108;2022-08-05T03:06:16;99192.03;;;18.43;100.00
21960;BME280;11144;43.030;25.108;2022-08-05T03:08:11;99193.94;;;18.41;100.00
21960;BME280;11144;43.030;25.108;2022-08-05T03:09:47;99196.09;;;18.36;100.00
21960;BME280;11144;43.030;25.108;2022-08-05T03:11:25;99198.16;;;18.31;100.00
21960;BME280;11144;43.030;25.108;2022-08-05T03:13:18;99201.28;;;18.25;100.00
21960;BME280;11144;43.030;25.108;2022-08-05T03:14:59;99204.19;;;18.22;100.00
21960;BME280;11144;43.030;25.108;2022-08-05T03:16:37;99202.88;;;18.15;100.00
21960;BME280;11144;43.030;25.108;2022-08-05T03:18:11;99192.56;;;18.09;100.00
21960;BME280;11144;43.030;25.108;2022-08-05T03:19:48;99203.72;;;18.03;100.00
21960;BME280;11144;43.030;25.108;2022-08-05T03:21:21;99208.22;;;18.03;100.00
21960;BME280;11144;43.030;25.108;2022-08-05T03:23:00;99203.06;;;18.00;100.00
21960;BME280;11144;43.030;25.108;2022-08-05T03:24:35;99204.13;;;17.97;100.00
21960;BME280;11144;43.030;25.108;2022-08-05T03:26:08;99212.16;;;17.97;100.00
21960;BME280;11144;43.030;25.108;2022-08-05T03:28:04;99207.09;;;17.93;100.00
21960;BME280;11144;43.030;25.108;2022-08-05T03:29:39;99210.75;;;17.92;100.00
21960;BME280;11144;43.030;25.108;2022-08-05T03:31:34;99219.84;;;17.89;100.00
21960;BME280;11144;43.030;25.108;2022-08-05T03:33:28;99218.69;;;17.93;100.00
21960;BME280;11144;43.030;25.108;2022-08-05T03:35:21;99220.38;;;17.94;100.00
21960;BME280;11144;43.030;25.108;2022-08-05T03:36:55;99215.78;;;17.96;100.00
21960;BME280;11144;43.030;25.108;2022-08-05T03:38:29;99218.28;;;17.99;100.00
21960;BME280;11144;43.030;25.108;2022-08-05T03:40:05;99218.47;;;17.96;100.00
21960;BME280;11144;43.030;25.108;2022-08-05T03:41:42;99221.69;;;18.01;100.00
21960;BME280;11144;43.030;25.108;2022-08-05T03:43:18;99223.81;;;17.96;100.00
21960;BME280;11144;43.030;25.108;2022-08-05T03:45:12;99221.47;;;18.04;100.00
21960;BME280;11144;43.030;25.108;2022-08-05T03:46:55;99223.75;;;18.10;100.00
21960;BME280;11144;43.030;25.108;2022-08-05T03:48:29;99223.84;;;18.09;100.00
21960;BME280;11144;43.030;25.108;2022-08-05T03:50:07;99218.50;;;18.09;100.00
21960;BME280;11144;43.030;25.108;2022-08-05T03:51:44;99223.41;;;18.15;100.00
21960;BME280;11144;43.030;25.108;2022-08-05T03:53:40;99225.25;;;18.14;100.00
21960;BME280;11144;43.030;25.108;2022-08-05T03:55:41;99231.59;;;18.13;100.00
21960;BME280;11144;43.030;25.108;2022-08-05T03:57:38;99227.50;;;18.20;100.00
21960;BME280;11144;43.030;25.108;2022-08-05T03:59:17;99216.38;;;18.26;100.00
21960;BME280;11144;43.030;25.108;2022-08-05T04:00:56;99227.75;;;18.30;100.00
21960;BME280;11144;43.030;25.108;2022-08-05T04:02:34;99219.81;;;18.28;100.00
21960;BME280;11144;43.030;25.108;2022-08-05T04:04:30;99222.28;;;18.31;100.00
21960;BME280;11144;43.030;25.108;2022-08-05T04:06:05;99230.09;;;18.34;100.00
21960;BME280;11144;43.030;25.108;2022-08-05T04:07:40;99233.75;;;18.33;100.00
21960;BME280;11144;43.030;25.108;2022-08-05T04:09:30;99226.47;;;18.35;100.00
21960;BME280;11144;43.030;25.108;2022-08-05T04:11:07;99228.00;;;18.39;100.00
21960;BME280;11144;43.030;25.108;2022-08-05T04:12:41;99235.50;;;18.47;100.00
21960;BME280;11144;43.030;25.108;2022-08-05T04:14:13;99234.00;;;18.55;100.00
21960;BME280;11144;43.030;25.108;2022-08-05T04:15:49;99226.50;;;18.60;100.00
21960;BME280;11144;43.030;25.108;2022-08-05T04:17:36;99226.81;;;18.68;100.00
21960;BME280;11144;43.030;25.108;2022-08-05T04:19:28;99223.50;;;18.77;100.00
21960;BME280;11144;43.030;25.108;2022-08-05T04:21:03;99228.44;;;18.83;100.00
21960;BME280;11144;43.030;25.108;2022-08-05T04:22:36;99229.50;;;18.81;100.00
21960;BME280;11144;43.030;25.108;2022-08-05T04:24:11;99221.34;;;18.82;100.00
21960;BME280;11144;43.030;25.108;2022-08-05T04:25:53;99221.56;;;18.79;100.00
21960;BME280;11144;43.030;25.108;2022-08-05T04:27:31;99227.78;;;18.80;100.00
21960;BME280;11144;43.030;25.108;2022-08-05T04:29:25;99220.16;;;18.86;100.00
21960;BME280;11144;43.030;25.108;2022-08-05T04:31:00;99220.50;;;18.82;100.00
21960;BME280;11144;43.030;25.108;2022-08-05T04:32:43;99228.19;;;18.99;100.00
21960;BME280;11144;43.030;25.108;2022-08-05T04:34:16;99232.66;;;19.11;100.00
21960;BME280;11144;43.030;25.108;2022-08-05T04:36:06;99228.38;;;19.21;100.00
21960;BME280;11144;43.030;25.108;2022-08-05T04:38:00;99211.00;;;19.26;100.00
21960;BME280;11144;43.030;25.108;2022-08-05T04:39:37;99227.72;;;19.42;100.00
21960;BME280;11144;43.030;25.108;2022-08-05T04:41:11;99235.06;;;19.51;100.00
21960;BME280;11144;43.030;25.108;2022-08-05T04:42:45;99235.34;;;19.59;100.00
21960;BME280;11144;43.030;25.108;2022-08-05T04:44:19;99230.81;;;19.72;100.00
21960;BME280;11144;43.030;25.108;2022-08-05T04:45:59;99226.81;;;20.02;100.00
21960;BME280;11144;43.030;25.108;2022-08-05T04:47:36;99235.16;;;20.44;100.00
21960;BME280;11144;43.030;25.108;2022-08-05T04:49:19;99237.75;;;20.90;100.00
21960;BME280;11144;43.030;25.108;2022-08-05T04:51:08;99235.59;;;21.39;100.00
21960;BME280;11144;43.030;25.108;2022-08-05T04:52:44;99231.84;;;21.84;100.00
21960;BME280;11144;43.030;25.108;2022-08-05T04:54:20;99231.06;;;22.24;100.00
21960;BME280;11144;43.030;25.108;2022-08-05T04:55:59;99223.41;;;22.61;100.00
21960;BME280;11144;43.030;25.108;2022-08-05T04:57:52;99221.69;;;23.11;100.00
21960;BME280;11144;43.030;25.108;2022-08-05T04:59:26;99220.00;;;23.49;100.00
21960;BME280;11144;43.030;25.108;2022-08-05T05:01:10;99211.41;;;23.84;100.00
21960;BME280;11144;43.030;25.108;2022-08-05T05:02:43;99213.72;;;24.26;100.00
21960;BME280;11144;43.030;25.108;2022-08-05T05:04:16;99210.41;;;24.70;100.00
21960;BME280;11144;43.030;25.108;2022-08-05T05:05:51;99207.19;;;24.94;100.00
21960;BME280;11144;43.030;25.108;2022-08-05T05:07:45;99208.41;;;25.18;100.00
21960;BME280;11144;43.030;25.108;2022-08-05T05:09:27;99204.31;;;25.41;100.00
21960;BME280;11144;43.030;25.108;2022-08-05T05:11:03;99205.41;;;25.48;100.00
21960;BME280;11144;43.030;25.108;2022-08-05T05:12:37;99196.06;;;25.60;100.00
21960;BME280;11144;43.030;25.108;2022-08-05T05:14:10;99187.78;;;25.62;100.00
21960;BME280;11144;43.030;25.108;2022-08-05T05:15:47;99188.03;;;25.86;100.00
21960;BME280;11144;43.030;25.108;2022-08-05T05:17:36;99177.75;;;26.25;100.00
21960;BME280;11144;43.030;25.108;2022-08-05T05:19:28;99178.13;;;26.73;100.00
21960;BME280;11144;43.030;25.108;2022-08-05T05:21:16;99179.91;;;27.15;100.00
21960;BME280;11144;43.030;25.108;2022-08-05T05:22:49;99176.56;;;27.55;100.00
21960;BME280;11144;43.030;25.108;2022-08-05T05:24:23;99173.56;;;27.82;100.00
21960;BME280;11144;43.030;25.108;2022-08-05T05:26:16;99170.03;;;28.21;100.00
21960;BME280;11144;43.030;25.108;2022-08-05T05:27:49;99171.22;;;28.35;100.00
21960;BME280;11144;43.030;25.108;2022-08-05T05:29:27;99160.34;;;28.27;100.00
21960;BME280;11144;43.030;25.108;2022-08-05T05:31:20;99169.91;;;28.55;100.00
21960;BME280;11144;43.030;25.108;2022-08-05T05:32:56;99178.19;;;28.77;100.00
21960;BME280;11144;43.030;25.108;2022-08-05T05:34:34;99167.50;;;28.68;100.00
21960;BME280;11144;43.030;25.108;2022-08-05T05:36:09;99162.91;;;28.68;100.00
21960;BME280;11144;43.030;25.108;2022-08-05T05:37:47;99170.22;;;28.60;100.00
21960;BME280;11144;43.030;25.108;2022-08-05T05:39:31;99161.13;;;28.91;100.00
21960;BME280;11144;43.030;25.108;2022-08-05T05:41:13;99171.53;;;29.04;100.00
21960;BME280;11144;43.030;25.108;2022-08-05T05:42:49;99170.13;;;29.16;100.00
21960;BME280;11144;43.030;25.108;2022-08-05T05:44:23;99167.03;;;29.19;100.00
21960;BME280;11144;43.030;25.108;2022-08-05T05:46:08;99169.03;;;29.33;100.00
21960;BME280;11144;43.030;25.108;2022-08-05T05:47:51;99172.50;;;29.19;100.00
21960;BME280;11144;43.030;25.108;2022-08-05T05:49:38;99167.34;;;29.32;100.00
21960;BME280;11144;43.030;25.108;2022-08-05T05:51:17;99167.56;;;29.53;100.00
21960;BME280;11144;43.030;25.108;2022-08-05T05:52:52;99167.34;;;29.93;100.00
21960;BME280;11144;43.030;25.108;2022-08-05T05:54:26;99164.50;;;30.17;100.00
21960;BME280;11144;43.030;25.108;2022-08-05T05:56:19;99162.50;;;30.48;100.00
21960;BME280;11144;43.030;25.108;2022-08-05T05:58:04;99169.16;;;30.68;100.00
21960;BME280;11144;43.030;25.108;2022-08-05T05:59:40;99166.38;;;30.76;100.00
21960;BME280;11144;43.030;25.108;2022-08-05T06:01:14;99166.56;;;30.89;100.00
21960;BME280;11144;43.030;25.108;2022-08-05T06:02:47;99172.25;;;31.02;100.00
21960;BME280;11144;43.030;25.108;2022-08-05T06:04:20;99164.91;;;31.03;100.00
21960;BME280;11144;43.030;25.108;2022-08-05T06:05:54;99172.03;;;30.89;100.00
21960;BME280;11144;43.030;25.108;2022-08-05T06:07:27;99175.25;;;31.07;100.00
21960;BME280;11144;43.030;25.108;2022-08-05T06:09:15;99168.84;;;31.29;100.00
21960;BME280;11144;43.030;25.108;2022-08-05T06:10:58;99173.09;;;31.46;100.00
21960;BME280;11144;43.030;25.108;2022-08-05T06:12:32;99172.25;;;31.46;100.00
21960;BME280;11144;43.030;25.108;2022-08-05T06:14:12;99162.22;;;31.53;100.00
21960;BME280;11144;43.030;25.108;2022-08-05T06:15:47;99164.28;;;31.65;100.00
21960;BME280;11144;43.030;25.108;2022-08-05T06:17:48;99169.19;;;32.06;100.00
21960;BME280;11144;43.030;25.108;2022-08-05T06:19:26;99171.72;;;32.28;100.00
21960;BME280;11144;43.030;25.108;2022-08-05T06:21:06;99169.72;;;32.37;100.00
21960;BME280;11144;43.030;25.108;2022-08-05T06:22:49;99169.31;;;32.61;100.00
21960;BME280;11144;43.030;25.108;2022-08-05T06:24:24;99167.97;;;32.78;100.00
21960;BME280;11144;43.030;25.108;2022-08-05T06:25:58;99167.31;;;32.97;100.00
21960;BME280;11144;43.030;25.108;2022-08-05T06:27:51;99168.44;;;33.09;100.00
21960;BME280;11144;43.030;25.108;2022-08-05T06:29:47;99168.81;;;33.33;100.00
21960;BME280;11144;43.030;25.108;2022-08-05T06:31:37;99167.38;;;33.44;100.00
21960;BME280;11144;43.030;25.108;2022-08-05T06:33:12;99170.84;;;33.25;100.00
21960;BME280;11144;43.030;25.108;2022-08-05T06:35:04;99166.88;;;33.00;100.00
21960;BME280;11144;43.030;25.108;2022-08-05T06:36:58;99163.91;;;32.95;100.00
21960;BME280;11144;43.030;25.108;2022-08-05T06:38:31;99169.38;;;32.88;100.00
21960;BME280;11144;43.030;25.108;2022-08-05T06:40:10;99160.63;;;33.12;100.00
21960;BME280;11144;43.030;25.108;2022-08-05T06:41:44;99167.56;;;33.36;100.00
21960;BME280;11144;43.030;25.108;2022-08-05T06:43:19;99164.19;;;33.34;100.00
21960;BME280;11144;43.030;25.108;2022-08-05T06:45:12;99168.53;;;33.56;100.00
21960;BME280;11144;43.030;25.108;2022-08-05T06:46:52;99169.78;;;33.26;100.00
21960;BME280;11144;43.030;25.108;2022-08-05T06:48:26;99167.56;;;33.36;100.00
21960;BME280;11144;43.030;25.108;2022-08-05T06:50:21;99170.13;;;33.44;100.00
21960;BME280;11144;43.030;25.108;2022-08-05T06:51:55;99163.84;;;33.56;100.00
21960;BME280;11144;43.030;25.108;2022-08-05T06:53:30;99159.56;;;33.88;100.00
21960;BME280;11144;43.030;25.108;2022-08-05T06:55:11;99160.78;;;33.72;100.00
21960;BME280;11144;43.030;25.108;2022-08-05T06:56:45;99162.34;;;34.01;100.00
21960;BME280;11144;43.030;25.108;2022-08-05T06:58:39;99157.72;;;34.14;100.00
21960;BME280;11144;43.030;25.108;2022-08-05T07:00:17;99154.59;;;33.57;100.00
21960;BME280;11144;43.030;25.108;2022-08-05T07:01:55;99148.34;;;33.83;100.00
21960;BME280;11144;43.030;25.108;2022-08-05T07:03:29;99159.81;;;34.06;100.00
21960;BME280;11144;43.030;25.108;2022-08-05T07:05:05;99157.31;;;34.24;100.00
21960;BME280;11144;43.030;25.108;2022-08-05T07:06:49;99157.59;;;34.48;100.00
21960;BME280;11144;43.030;25.108;2022-08-05T07:08:23;99152.28;;;34.73;100.00
21960;BME280;11144;43.030;25.108;2022-08-05T07:09:57;99153.38;;;34.85;100.00
21960;BME280;11144;43.030;25.108;2022-08-05T07:11:35;99154.59;;;35.15;100.00
21960;BME280;11144;43.030;25.108;2022-08-05T07:13:11;99147.78;;;35.24;100.00
21960;BME280;11144;43.030;25.108;2022-08-05T07:15:22;99162.78;;;35.28;100.00
21960;BME280;11144;43.030;25.108;2022-08-05T07:17:33;99157.53;;;35.33;100.00
21960;BME280;11144;43.030;25.108;2022-08-05T07:19:27;99153.06;;;35.32;100.00
21960;BME280;11144;43.030;25.108;2022-08-05T07:21:21;99148.97;;;35.54;100.00
21960;BME280;11144;43.030;25.108;2022-08-05T07:22:56;99156.31;;;35.73;100.00
21960;BME280;11144;43.030;25.108;2022-08-05T07:24:30;99150.31;;;35.89;100.00
21960;BME280;11144;43.030;25.108;2022-08-05T07:26:14;99150.75;;;35.86;100.00
21960;BME280;11144;43.030;25.108;2022-08-05T07:27:55;99155.41;;;35.86;100.00
21960;BME280;11144;43.030;25.108;2022-08-05T07:29:38;99156.91;;;35.88;100.00
21960;BME280;11144;43.030;25.108;2022-08-05T07:31:33;99154.00;;;36.14;100.00
21960;BME280;11144;43.030;25.108;2022-08-05T07:33:25;99141.22;;;36.26;100.00
21960;BME280;11144;43.030;25.108;2022-08-05T07:35:09;99147.56;;;36.27;100.00
21960;BME280;11144;43.030;25.108;2022-08-05T07:37:02;99141.63;;;36.23;100.00
21960;BME280;11144;43.030;25.108;2022-08-05T07:38:40;99137.19;;;36.22;100.00
21960;BME280;11144;43.030;25.108;2022-08-05T07:40:14;99137.78;;;36.31;100.00
21960;BME280;11144;43.030;25.108;2022-08-05T07:42:04;99133.19;;;36.18;100.00
21960;BME280;11144;43.030;25.108;2022-08-05T07:43:48;99141.22;;;35.38;100.00
21960;BME280;11144;43.030;25.108;2022-08-05T07:45:22;99134.03;;;35.37;100.00
21960;BME280;11144;43.030;25.108;2022-08-05T07:47:16;99136.63;;;34.80;100.00
21960;BME280;11144;43.030;25.108;2022-08-05T07:48:59;99132.84;;;34.55;100.00
21960;BME280;11144;43.030;25.108;2022-08-05T07:50:38;99125.84;;;34.72;100.00
21960;BME280;11144;43.030;25.108;2022-08-05T07:52:12;99130.66;;;35.22;100.00
21960;BME280;11144;43.030;25.108;2022-08-05T07:53:46;99137.72;;;35.62;100.00
21960;BME280;11144;43.030;25.108;2022-08-05T07:55:22;99123.09;;;36.06;100.00
21960;BME280;11144;43.030;25.108;2022-08-05T07:57:15;99133.09;;;36.31;100.00
21960;BME280;11144;43.030;25.108;2022-08-05T07:59:10;99131.72;;;36.16;100.00
21960;BME280;11144;43.030;25.108;2022-08-05T08:00:45;99134.03;;;36.25;100.00
21960;BME280;11144;43.030;25.108;2022-08-05T08:02:23;99125.66;;;36.01;100.00
21960;BME280;11144;43.030;25.108;2022-08-05T08:03:57;99138.19;;;36.34;100.00
21960;BME280;11144;43.030;25.108;2022-08-05T08:05:32;99128.97;;;36.71;100.00
21960;BME280;11144;43.030;25.108;2022-08-05T08:07:11;99133.66;;;37.13;100.00
21960;BME280;11144;43.030;25.108;2022-08-05T08:08:45;99129.75;;;36.78;100.00
21960;BME280;11144;43.030;25.108;2022-08-05T08:10:20;99132.63;;;36.90;100.00
21960;BME280;11144;43.030;25.108;2022-08-05T08:11:56;99126.88;;;37.09;100.00
21960;BME280;11144;43.030;25.108;2022-08-05T08:13:42;99131.84;;;37.25;100.00
21960;BME280;11144;43.030;25.108;2022-08-05T08:15:33;99132.28;;;37.41;100.00
21960;BME280;11144;43.030;25.108;2022-08-05T08:17:26;99123.38;;;37.57;100.00
21960;BME280;11144;43.030;25.108;2022-08-05T08:19:01;99128.44;;;37.78;100.00
21960;BME280;11144;43.030;25.108;2022-08-05T08:20:37;99127.44;;;38.02;100.00
21960;BME280;11144;43.030;25.108;2022-08-05T08:22:31;99122.97;;;38.19;100.00
21960;BME280;11144;43.030;25.108;2022-08-05T08:24:05;99119.25;;;37.95;100.00
21960;BME280;11144;43.030;25.108;2022-08-05T08:25:45;99127.81;;;37.76;100.00
21960;BME280;11144;43.030;25.108;2022-08-05T08:27:31;99116.03;;;37.98;100.00
21960;BME280;11144;43.030;25.108;2022-08-05T08:29:16;99123.09;;;38.12;100.00
21960;BME280;11144;43.030;25.108;2022-08-05T08:31:11;99110.13;;;38.24;100.00
21960;BME280;11144;43.030;25.108;2022-08-05T08:32:48;99109.38;;;38.17;100.00
21960;BME280;11144;43.030;25.108;2022-08-05T08:34:24;99112.13;;;38.06;100.00
21960;BME280;11144;43.030;25.108;2022-08-05T08:36:04;99105.91;;;38.22;100.00
21960;BME280;11144;43.030;25.108;2022-08-05T08:37:58;99103.53;;;38.37;100.00
21960;BME280;11144;43.030;25.108;2022-08-05T08:39:32;99104.75;;;38.41;100.00
21960;BME280;11144;43.030;25.108;2022-08-05T08:41:09;99106.25;;;38.55;100.00
21960;BME280;11144;43.030;25.108;2022-08-05T08:42:48;99101.72;;;38.31;100.00
21960;BME280;11144;43.030;25.108;2022-08-05T08:44:24;99097.06;;;38.43;100.00